Time;durP1;ratioP1;P1;durP2;ratioP2;P2;SDS_P1;SDS_P2;PMS_P1;PMS_P2;Temp;Humidity;BMP_temperature;BMP_pressure;BME280_temperature;BME280_humidity;BME280_pressure;Samples;Min_cycle;Max_cycle;Signal;HPM_P1;HPM_P2
2022/01/08 00:00:14;;;;;;;8.23;6.95;;;;;;;4.28;70.79;95015.69;4937600;29;20035;-80
2022/01/08 00:02:39;;;;;;;7.93;6.25;;;;;;;4.24;71.30;95020.41;4905580;29;20108;-80
2022/01/08 00:05:05;;;;;;;7.35;5.55;;;;;;;4.33;70.96;95029.56;4895134;29;20039;-80
2022/01/08 00:09:58;;;;;;;8.52;5.90;;;;;;;4.17;71.50;95029.84;4928928;29;20056;-79
2022/01/08 00:12:24;;;;;;;6.82;6.05;;;;;;;4.05;72.07;95026.97;4929985;29;20734;-81
2022/01/08 00:14:49;;;;;;;5.78;5.28;;;;;;;4.06;72.03;95023.41;4944727;29;20032;-79
2022/01/08 00:17:15;;;;;;;6.90;6.22;;;;;;;4.01;72.33;95024.97;4946281;29;20105;-79
2022/01/08 00:19:40;;;;;;;6.75;6.07;;;;;;;3.88;72.61;95017.94;4942834;29;20034;-79
2022/01/08 00:22:06;;;;;;;7.68;6.20;;;;;;;3.92;71.98;95016.59;4946617;29;20046;-80
2022/01/08 00:24:31;;;;;;;8.20;6.65;;;;;;;3.84;72.95;95014.94;4948973;29;20411;-81
2022/01/08 00:26:57;;;;;;;7.30;6.57;;;;;;;3.89;73.10;95011.78;4913864;29;20042;-80
2022/01/08 00:29:22;;;;;;;7.15;6.43;;;;;;;3.81;72.67;95004.22;4960665;23;20080;-81
2022/01/08 00:31:48;;;;;;;7.45;6.00;;;;;;;3.77;72.93;94987.56;4937272;29;20036;-80
2022/01/08 00:34:13;;;;;;;7.50;6.60;;;;;;;3.80;73.14;94995.72;4888252;29;20039;-80
2022/01/08 00:36:39;;;;;;;8.63;6.35;;;;;;;3.85;72.97;94992.56;4901494;29;20029;-80
2022/01/08 00:39:04;;;;;;;7.80;6.78;;;;;;;3.92;72.35;94991.66;4885206;29;20048;-81
2022/01/08 00:41:30;;;;;;;5.97;5.47;;;;;;;3.96;72.02;94996.44;4917804;29;20091;-80
2022/01/08 00:43:55;;;;;;;7.22;6.35;;;;;;;3.87;72.45;94999.13;4900011;29;20087;-81
2022/01/08 00:46:21;;;;;;;6.43;5.82;;;;;;;3.87;72.74;94993.19;4918238;29;20071;-81
2022/01/08 00:48:46;;;;;;;7.10;6.43;;;;;;;3.79;72.54;94996.69;4948374;23;20048;-81
2022/01/08 00:51:12;;;;;;;7.18;6.45;;;;;;;3.84;72.57;94986.63;4938465;29;20036;-81
2022/01/08 00:53:40;;;;;;;7.15;6.05;;;;;;;3.94;72.35;94994.06;4894706;29;20039;-81
2022/01/08 00:56:05;;;;;;;6.07;5.57;;;;;;;3.92;72.35;94994.25;4882914;29;20032;-80
2022/01/08 00:58:31;;;;;;;6.35;5.75;;;;;;;4.00;71.81;94988.16;4917752;29;20042;-80
2022/01/08 01:00:56;;;;;;;6.78;5.80;;;;;;;3.98;72.57;94979.81;4901473;29;20127;-80
2022/01/08 01:03:22;;;;;;;6.55;5.95;;;;;;;3.94;71.84;94991.47;4898613;29;20032;-81
2022/01/08 01:05:47;;;;;;;6.13;5.55;;;;;;;3.84;72.38;94980.69;4918758;29;20043;-80
2022/01/08 01:08:13;;;;;;;6.38;5.75;;;;;;;3.81;73.28;94979.28;4917821;29;20432;-80
2022/01/08 01:10:41;;;;;;;6.50;5.78;;;;;;;3.89;72.28;94976.56;4921086;29;20020;-80
2022/01/08 01:13:06;;;;;;;6.32;5.72;;;;;;;3.95;71.98;94975.06;4923560;29;20036;-81
2022/01/08 01:15:32;;;;;;;7.18;5.63;;;;;;;3.88;72.54;94969.06;4922211;29;20043;-80
2022/01/08 01:17:57;;;;;;;6.57;5.95;;;;;;;3.98;72.61;94964.38;4945540;23;20096;-80
2022/01/08 01:20:23;;;;;;;5.18;4.78;;;;;;;4.02;72.45;94968.16;4922525;29;20036;-81
2022/01/08 01:25:40;;;;;;;5.68;5.18;;;;;;;4.08;71.79;94959.72;4922746;29;20067;-81
2022/01/08 01:28:32;;;;;;;5.97;5.20;;;;;;;4.09;71.17;94961.31;4928040;29;20039;-79
2022/01/08 01:41:09;;;;;;;4.97;4.47;;;;;;;4.02;72.20;94954.50;4981593;23;20055;-79
2022/01/08 01:49:20;;;;;;;5.82;4.63;;;;;;;4.17;71.96;94927.69;4939092;29;20042;-78
2022/01/08 01:51:45;;;;;;;4.55;4.15;;;;;;;4.29;70.91;94924.59;4937358;29;20051;-80
2022/01/08 01:54:11;;;;;;;5.85;5.07;;;;;;;4.31;70.74;94922.63;4939667;29;20043;-78
2022/01/08 01:56:36;;;;;;;5.18;4.68;;;;;;;4.30;70.92;94926.19;4985716;23;20095;-79
2022/01/08 01:59:08;;;;;;;5.43;4.88;;;;;;;4.27;70.17;94926.56;4995042;23;20051;-79
2022/01/08 02:01:36;;;;;;;4.47;4.15;;;;;;;4.18;70.95;94911.25;4940665;29;20118;-78
2022/01/08 02:04:01;;;;;;;4.70;4.30;;;;;;;4.05;71.17;94918.09;4941562;29;20036;-79
2022/01/08 02:06:27;;;;;;;5.32;4.47;;;;;;;3.95;71.53;94915.88;4910032;29;20046;-79
2022/01/08 02:08:52;;;;;;;4.93;4.30;;;;;;;3.82;72.77;94918.38;5059758;23;20051;-78
2022/01/08 02:11:21;;;;;;;5.40;4.95;;;;;;;3.71;73.12;94921.44;4940524;29;20035;-79
2022/01/08 02:16:16;;;;;;;4.80;4.40;;;;;;;3.63;73.50;94917.25;4991676;23;20055;-80
2022/01/08 02:18:46;;;;;;;5.10;4.70;;;;;;;3.62;73.18;94923.38;4973597;23;20187;-79
2022/01/08 02:21:12;;;;;;;5.00;4.60;;;;;;;3.60;73.48;94904.75;4935177;29;20575;-79
2022/01/08 02:23:38;;;;;;;6.63;5.20;;;;;;;3.51;73.88;94911.00;4911849;23;20069;-81
2022/01/08 02:26:05;;;;;;;5.13;4.68;;;;;;;3.45;74.15;94896.31;4957731;29;20031;-79
2022/01/08 02:28:31;;;;;;;5.15;4.70;;;;;;;3.48;73.79;94891.59;4960422;23;20039;-80
2022/01/08 02:30:56;;;;;;;4.88;4.53;;;;;;;3.43;74.15;94883.66;4978559;23;20055;-81
2022/01/08 02:33:28;;;;;;;5.75;5.15;;;;;;;3.34;74.76;94881.41;4967665;23;20019;-80
2022/01/08 02:35:53;;;;;;;5.93;5.18;;;;;;;3.36;74.67;94872.53;4936609;29;20043;-81
2022/01/08 02:38:19;;;;;;;5.47;5.00;;;;;;;3.38;75.14;94865.41;4942669;29;20031;-81
2022/01/08 02:40:53;;;;;;;5.30;4.80;;;;;;;3.42;74.83;94876.94;4947139;29;20035;-80
2022/01/08 02:43:19;;;;;;;5.00;4.60;;;;;;;3.45;74.63;94876.56;4946257;29;20059;-81
2022/01/08 02:45:44;;;;;;;5.93;4.85;;;;;;;3.50;74.35;94866.50;4926741;29;20051;-81
2022/01/08 02:48:10;;;;;;;5.65;5.00;;;;;;;3.52;74.42;94866.31;4950465;29;20770;-81
2022/01/08 02:50:35;;;;;;;5.40;4.90;;;;;;;3.48;74.22;94868.47;4948420;29;20499;-80
2022/01/08 02:53:03;;;;;;;6.60;5.13;;;;;;;3.36;74.65;94866.59;4999626;23;20044;-79
2022/01/08 02:55:28;;;;;;;5.53;5.03;;;;;;;3.45;74.56;94861.13;4925115;29;20040;-80
2022/01/08 02:57:54;;;;;;;5.68;5.03;;;;;;;3.47;74.48;94859.16;5021762;23;21673;-80
2022/01/08 03:00:22;;;;;;;6.05;4.97;;;;;;;3.47;74.69;94863.50;4935414;29;20040;-81
2022/01/08 03:02:49;;;;;;;5.97;5.00;;;;;;;3.41;74.83;94857.31;4937561;29;20440;-80
2022/01/08 03:05:14;;;;;;;6.13;5.57;;;;;;;3.36;74.74;94858.88;4936797;29;20098;-80
2022/01/08 03:07:41;;;;;;;6.53;5.15;;;;;;;3.37;74.92;94858.69;4936810;29;20038;-81
2022/01/08 03:10:10;;;;;;;5.45;4.95;;;;;;;3.34;75.13;94864.19;4935981;29;20041;-81
2022/01/08 03:12:38;;;;;;;5.72;5.22;;;;;;;3.40;75.72;94853.16;4905464;29;20040;-82
2022/01/08 03:15:04;;;;;;;6.25;5.13;;;;;;;3.40;74.89;94858.31;4897160;29;20058;-81
2022/01/08 03:17:30;;;;;;;5.28;4.78;;;;;;;3.39;74.83;94861.84;4935594;29;20035;-80
2022/01/08 03:20:09;;;;;;;5.30;4.85;;;;;;;3.43;75.06;94852.81;4904766;29;20031;-80
2022/01/08 03:22:35;;;;;;;5.95;5.45;;;;;;;3.61;74.27;94870.34;4937110;29;20050;-81
2022/01/08 03:25:00;;;;;;;6.38;5.15;;;;;;;3.59;74.29;94867.19;4951689;23;20141;-81
2022/01/08 03:27:26;;;;;;;6.05;5.45;;;;;;;3.60;74.26;94873.91;4984680;23;20127;-80
2022/01/08 03:29:52;;;;;;;5.45;4.95;;;;;;;3.52;75.10;94869.69;4944110;23;20070;-80
2022/01/08 03:32:17;;;;;;;5.43;5.03;;;;;;;3.42;75.16;94861.50;4938692;29;20675;-79
2022/01/08 03:34:43;;;;;;;4.93;4.53;;;;;;;3.45;75.43;94870.63;4920870;29;20503;-80
2022/01/08 03:37:08;;;;;;;5.80;4.78;;;;;;;3.40;75.42;94868.59;4938099;29;20035;-81
2022/01/08 03:39:34;;;;;;;5.40;5.00;;;;;;;3.47;74.86;94871.22;4906527;29;20058;-80
2022/01/08 03:41:59;;;;;;;5.55;5.05;;;;;;;3.52;74.99;94861.97;4919272;29;20042;-81
2022/01/08 03:44:25;;;;;;;5.72;5.22;;;;;;;3.48;75.21;94845.34;4938677;29;20038;-81
2022/01/08 03:51:45;;;;;;;5.78;5.25;;;;;;;3.39;75.82;94835.38;4983714;23;20503;-80
2022/01/08 03:54:11;;;;;;;5.05;4.65;;;;;;;3.34;76.04;94827.44;4943842;29;20043;-80
2022/01/08 03:56:39;;;;;;;5.55;5.05;;;;;;;3.46;75.59;94828.50;4923402;29;20035;-81
2022/01/08 03:59:07;;;;;;;5.85;5.35;;;;;;;3.31;76.07;94823.47;4947089;29;20048;-82
2022/01/08 04:01:33;;;;;;;7.35;5.40;;;;;;;3.28;76.15;94823.84;4947620;29;20063;-81
2022/01/08 04:03:58;;;;;;;5.63;5.13;;;;;;;3.31;76.35;94820.88;4943100;29;20179;-81
2022/01/08 04:08:57;;;;;;;6.07;5.50;;;;;;;3.38;75.74;94808.88;4977512;23;20506;-80
2022/01/08 04:11:23;;;;;;;5.85;5.35;;;;;;;3.35;76.24;94809.25;4936232;29;20035;-80
2022/01/08 04:13:49;;;;;;;8.25;6.00;;;;;;;3.35;75.90;94813.59;4940217;29;20507;-80
2022/01/08 04:16:19;;;;;;;5.13;4.65;;;;;;;3.38;76.17;94821.72;4946732;29;20035;-80
2022/01/08 04:18:45;;;;;;;4.90;4.50;;;;;;;3.33;75.99;94826.63;4945802;29;20035;-79
2022/01/08 04:21:48;;;;;;;5.70;5.07;;;;;;;3.24;76.24;94820.03;4947500;29;20042;-81
2022/01/08 04:23:57;;;;;;;5.05;4.57;;;;;;;3.33;76.32;94818.13;4945001;29;20046;-80
2022/01/08 04:26:25;;;;;;;6.30;5.20;;;;;;;3.41;75.84;94831.63;4909525;29;20519;-79
2022/01/08 04:28:54;;;;;;;4.95;4.38;;;;;;;3.44;75.50;94813.28;4925463;29;20035;-79
2022/01/08 04:31:20;;;;;;;6.93;5.28;;;;;;;3.38;75.68;94823.50;4911448;29;20496;-78
2022/01/08 04:33:45;;;;;;;5.30;4.80;;;;;;;3.46;75.41;94831.88;4912873;29;20032;-79
2022/01/08 04:36:11;;;;;;;6.28;4.97;;;;;;;3.42;75.65;94820.38;4931406;29;20040;-80
2022/01/08 04:38:36;;;;;;;5.18;4.72;;;;;;;3.47;75.50;94817.25;4911071;29;20534;-79
2022/01/08 04:41:02;;;;;;;6.15;5.65;;;;;;;3.47;75.46;94827.53;4915847;29;20528;-80
2022/01/08 04:43:28;;;;;;;5.88;5.35;;;;;;;3.44;75.92;94828.69;4931096;29;20047;-80
2022/01/08 04:45:54;;;;;;;6.95;5.45;;;;;;;3.47;75.99;94823.19;4932416;29;20066;-80
2022/01/08 04:48:20;;;;;;;5.28;4.88;;;;;;;3.47;76.15;94830.09;4916852;29;20043;-81
2022/01/08 04:50:45;;;;;;;5.25;4.85;;;;;;;3.41;76.22;94823.91;4916601;29;20083;-80
2022/01/08 04:53:14;;;;;;;5.22;4.82;;;;;;;3.40;76.33;94819.75;4933478;29;20027;-80
2022/01/08 04:55:39;;;;;;;4.40;4.10;;;;;;;3.57;76.03;94813.34;4930255;29;20038;-80
2022/01/08 04:58:05;;;;;;;8.13;6.22;;;;;;;3.54;75.64;94813.72;4915692;29;20512;-81
2022/01/08 05:00:31;;;;;;;6.78;5.20;;;;;;;3.51;75.88;94813.31;4914798;29;20047;-80
2022/01/08 05:02:56;;;;;;;4.97;4.32;;;;;;;3.44;76.22;94817.63;4956754;23;20055;-79
2022/01/08 05:05:22;;;;;;;6.25;4.72;;;;;;;3.43;76.49;94832.25;4958813;23;20056;-80
2022/01/08 05:07:47;;;;;;;4.88;4.47;;;;;;;3.52;75.95;94818.25;4941531;29;20042;-80
2022/01/08 05:10:12;;;;;;;4.88;4.20;;;;;;;3.54;75.83;94824.00;4940031;29;20043;-81
2022/01/08 05:12:39;;;;;;;5.43;4.50;;;;;;;3.65;74.98;94825.28;4990120;23;20432;-81
2022/01/08 05:15:05;;;;;;;4.55;4.03;;;;;;;3.71;75.04;94819.38;4948372;29;20047;-80
2022/01/08 05:17:35;;;;;;;5.22;4.13;;;;;;;3.75;75.00;94824.94;4928782;23;20044;-81
2022/01/08 05:20:09;;;;;;;5.55;4.00;;;;;;;3.78;74.98;94825.34;4955217;23;20044;-81
2022/01/08 05:25:16;;;;;;;4.10;3.70;;;;;;;3.80;74.83;94817.44;4940446;29;20079;-81
2022/01/08 05:27:42;;;;;;;4.68;4.25;;;;;;;3.73;74.82;94811.47;4909047;29;20039;-81
2022/01/08 05:30:15;;;;;;;6.57;3.95;;;;;;;3.71;75.38;94813.44;4908114;29;20054;-80
2022/01/08 05:35:06;;;;;;;4.60;4.30;;;;;;;3.68;74.93;94818.94;5039485;23;20059;-78
2022/01/08 05:37:31;;;;;;;3.70;3.40;;;;;;;3.71;74.94;94809.06;4953308;29;20122;-80
2022/01/08 05:39:56;;;;;;;3.92;3.63;;;;;;;3.66;75.21;94805.50;4991836;23;20052;-80
2022/01/08 05:42:22;;;;;;;4.10;3.72;;;;;;;3.65;75.31;94811.63;4941095;29;20036;-80
2022/01/08 05:44:47;;;;;;;12.88;3.35;;;;;;;3.72;75.15;94804.72;4960562;23;20152;-82
2022/01/08 05:47:14;;;;;;;3.90;3.60;;;;;;;3.77;74.27;94810.13;4940074;29;20048;-81
2022/01/08 05:49:39;;;;;;;7.50;3.53;;;;;;;3.94;73.71;94808.81;4941102;29;20141;-79
2022/01/08 05:52:05;;;;;;;3.95;3.65;;;;;;;4.05;73.76;94815.97;4923334;29;20079;-82
2022/01/08 05:54:32;;;;;;;4.28;3.78;;;;;;;4.08;72.91;94807.91;4920517;29;20418;-81
2022/01/08 05:56:58;;;;;;;3.25;3.03;;;;;;;4.09;73.12;94804.34;4939890;29;20043;-81
2022/01/08 05:59:26;;;;;;;3.92;3.53;;;;;;;4.16;72.86;94797.44;4940845;29;20043;-82
2022/01/08 06:01:52;;;;;;;3.20;3.00;;;;;;;4.03;73.69;94799.94;4921628;29;20491;-81
2022/01/08 06:04:20;;;;;;;3.40;3.20;;;;;;;4.22;73.51;94796.66;4905893;24;20051;-82
2022/01/08 06:06:52;;;;;;;3.97;3.67;;;;;;;4.08;73.36;94799.38;4919392;29;20062;-81
2022/01/08 06:09:17;;;;;;;3.72;3.50;;;;;;;3.98;73.62;94799.72;4924494;29;20051;-80
2022/01/08 06:11:42;;;;;;;6.15;3.17;;;;;;;3.93;74.09;94794.38;4931802;29;20036;-80
2022/01/08 06:14:08;;;;;;;3.88;3.58;;;;;;;3.94;74.20;94798.53;4952444;23;20051;-81
2022/01/08 06:16:35;;;;;;;3.90;3.47;;;;;;;3.98;74.08;94804.88;4931718;29;20027;-80
2022/01/08 06:19:02;;;;;;;3.35;3.15;;;;;;;3.90;74.56;94807.59;4998087;23;20725;-81
2022/01/08 06:21:28;;;;;;;3.85;3.30;;;;;;;3.92;74.68;94809.00;4937030;29;20455;-81
2022/01/08 06:23:53;;;;;;;3.13;2.92;;;;;;;4.00;74.68;94808.03;5022467;23;20165;-81
2022/01/08 06:26:18;;;;;;;3.35;3.15;;;;;;;4.11;74.06;94810.09;4961438;23;20165;-79
2022/01/08 06:28:44;;;;;;;14.85;3.58;;;;;;;3.98;74.07;94797.16;4953412;23;20047;-80
2022/01/08 06:31:09;;;;;;;8.57;3.20;;;;;;;4.04;74.10;94804.09;4935350;29;20040;-80
2022/01/08 06:33:35;;;;;;;3.80;3.50;;;;;;;4.03;74.49;94797.38;4943445;29;20039;-78
2022/01/08 06:36:03;;;;;;;3.42;3.13;;;;;;;4.02;74.15;94793.22;4947794;29;20043;-81
2022/01/08 06:38:28;;;;;;;3.88;3.35;;;;;;;4.19;73.93;94791.09;4994160;23;20115;-78
2022/01/08 06:40:54;;;;;;;2.83;2.63;;;;;;;4.20;74.34;94788.34;4950017;29;20047;-79
2022/01/08 06:43:19;;;;;;;3.58;3.28;;;;;;;4.24;73.17;94782.81;4948174;29;20042;-79
2022/01/08 06:48:13;;;;;;;3.25;3.00;;;;;;;4.37;74.18;94788.00;4994372;23;20059;-80
2022/01/08 06:50:42;;;;;;;3.63;3.33;;;;;;;4.45;72.81;94805.84;5029797;23;20043;-80
2022/01/08 06:53:07;;;;;;;2.97;2.72;;;;;;;4.34;73.36;94793.53;4951031;29;20035;-79
2022/01/08 06:55:32;;;;;;;2.97;2.78;;;;;;;4.22;73.26;94780.41;4959091;23;20056;-80
2022/01/08 06:57:59;;;;;;;4.05;3.45;;;;;;;4.24;73.22;94782.81;4919452;29;20040;-79
2022/01/08 07:00:24;;;;;;;4.43;2.63;;;;;;;4.29;73.70;94794.13;4923724;23;20056;-79
2022/01/08 07:02:50;;;;;;;3.03;2.83;;;;;;;4.31;73.49;94786.19;4935634;29;20028;-81
2022/01/08 07:05:15;;;;;;;3.20;2.80;;;;;;;4.32;73.40;94790.34;4936436;29;20035;-80
2022/01/08 07:07:41;;;;;;;3.50;3.20;;;;;;;4.40;73.43;94787.63;4931334;29;20028;-81
2022/01/08 07:10:07;;;;;;;3.90;3.55;;;;;;;4.50;72.76;94793.19;4926856;29;20065;-81
2022/01/08 07:12:37;;;;;;;3.10;2.90;;;;;;;4.53;72.43;94790.22;4931549;29;20078;-81
2022/01/08 07:15:03;;;;;;;3.08;2.88;;;;;;;4.59;72.08;94792.03;4915498;29;20040;-80
2022/01/08 07:17:29;;;;;;;2.88;2.65;;;;;;;4.53;72.55;94779.91;4916213;29;20027;-79
2022/01/08 07:19:57;;;;;;;2.97;2.78;;;;;;;4.50;72.22;94786.25;4930444;29;20147;-81
2022/01/08 07:22:29;;;;;;;3.47;3.25;;;;;;;4.46;72.50;94787.63;4895913;29;20427;-82
2022/01/08 07:24:54;;;;;;;4.38;3.10;;;;;;;4.41;72.87;94789.22;4930578;29;20047;-81
2022/01/08 07:27:20;;;;;;;3.45;3.03;;;;;;;4.42;73.13;94780.50;4909308;29;20052;-80
2022/01/08 07:29:45;;;;;;;7.38;3.40;;;;;;;4.44;73.40;94786.25;4929946;29;20047;-80
2022/01/08 07:32:11;;;;;;;3.20;3.00;;;;;;;4.47;72.85;94784.06;4930805;29;20051;-79
2022/01/08 07:34:36;;;;;;;3.38;3.08;;;;;;;4.56;72.33;94792.41;4926525;29;20420;-80
2022/01/08 07:37:02;;;;;;;3.15;2.90;;;;;;;4.66;72.05;94779.16;4930418;29;20095;-81
2022/01/08 07:39:32;;;;;;;4.18;3.10;;;;;;;4.74;72.02;94792.66;4980236;23;20070;-81
2022/01/08 07:41:57;;;;;;;3.92;3.28;;;;;;;4.71;72.02;94784.50;4937121;29;20040;-72
2022/01/08 07:44:23;;;;;;;11.02;2.63;;;;;;;4.78;71.98;94791.25;4931579;29;20042;-74
2022/01/08 07:46:49;;;;;;;3.78;3.40;;;;;;;4.88;71.27;94790.88;4914633;29;20050;-73
2022/01/08 07:49:14;;;;;;;3.50;3.10;;;;;;;4.81;71.95;94798.59;4931335;29;20039;-73
2022/01/08 07:51:40;;;;;;;3.03;2.83;;;;;;;4.87;71.19;94785.91;4914989;29;20028;-73
2022/01/08 07:54:07;;;;;;;3.30;3.10;;;;;;;4.92;71.33;94791.28;4932153;29;20031;-72
2022/01/08 07:56:34;;;;;;;9.88;3.53;;;;;;;4.86;71.66;94786.91;4930792;29;20039;-73
2022/01/08 07:59:00;;;;;;;3.67;3.38;;;;;;;4.83;71.22;94773.41;4931763;29;20119;-73
2022/01/08 08:01:26;;;;;;;3.10;2.90;;;;;;;4.82;71.96;94782.16;4915090;29;20031;-74
2022/01/08 08:03:51;;;;;;;2.97;2.78;;;;;;;5.03;71.22;94782.94;4914501;29;20086;-73
2022/01/08 08:06:16;;;;;;;3.30;3.00;;;;;;;5.09;69.91;94787.31;4931726;29;20031;-73
2022/01/08 08:08:46;;;;;;;6.32;3.33;;;;;;;5.09;70.84;94793.28;4914633;29;20420;-73
2022/01/08 08:11:12;;;;;;;4.65;3.42;;;;;;;5.07;70.79;94791.88;4914933;29;20043;-73
2022/01/08 08:13:37;;;;;;;3.97;3.47;;;;;;;5.13;70.15;94780.78;4914507;29;20044;-74
2022/01/08 08:16:03;;;;;;;4.03;3.47;;;;;;;5.36;69.99;94777.78;4909360;29;20479;-73
2022/01/08 08:18:30;;;;;;;4.50;3.47;;;;;;;5.60;68.69;94790.06;4893396;29;20039;-73
2022/01/08 08:20:57;;;;;;;5.05;3.50;;;;;;;5.60;68.26;94784.09;4906991;29;20464;-73
2022/01/08 08:23:23;;;;;;;3.88;3.47;;;;;;;5.88;67.32;94774.31;4918774;29;20102;-73
2022/01/08 08:25:48;;;;;;;4.28;3.88;;;;;;;5.93;67.29;94774.53;4919108;29;20463;-74
2022/01/08 08:28:14;;;;;;;11.93;4.07;;;;;;;6.13;66.42;94773.66;4928763;29;20030;-79
2022/01/08 08:30:43;;;;;;;3.45;3.15;;;;;;;6.20;66.39;94784.75;4922086;29;20042;-78
2022/01/08 08:33:08;;;;;;;6.38;3.33;;;;;;;6.38;65.98;94759.06;4893022;29;20059;-84
2022/01/08 08:35:37;;;;;;;18.98;5.13;;;;;;;6.62;65.77;94760.88;4985366;23;20051;-87
2022/01/08 08:38:02;;;;;;;4.43;3.63;;;;;;;6.59;65.05;94763.09;4939692;29;20023;-82
2022/01/08 08:40:28;;;;;;;5.45;2.88;;;;;;;6.75;64.38;94762.59;4939836;29;20054;-88
2022/01/08 08:46:18;;;;;;;4.43;3.10;;;;;;;6.90;63.80;94762.31;4920797;29;20047;-84
2022/01/08 08:48:44;;;;;;;7.60;2.72;;;;;;;6.67;64.21;94760.28;4921573;29;20043;-82
2022/01/08 08:51:10;;;;;;;3.72;3.25;;;;;;;6.74;64.48;94761.03;4912638;29;20044;-83
2022/01/08 08:53:35;;;;;;;6.65;3.80;;;;;;;6.62;64.63;94752.34;4920203;29;20036;-81
2022/01/08 08:56:01;;;;;;;3.08;2.70;;;;;;;6.79;63.99;94747.47;4905818;29;20036;-81
2022/01/08 08:58:27;;;;;;;3.42;3.13;;;;;;;6.55;64.78;94736.13;4904843;29;20056;-85
2022/01/08 09:00:52;;;;;;;3.42;3.13;;;;;;;6.56;65.16;94748.81;4882707;29;20031;-82
2022/01/08 09:03:18;;;;;;;5.90;3.13;;;;;;;6.63;64.72;94759.09;4919153;29;20048;-84
2022/01/08 09:05:46;;;;;;;3.72;3.05;;;;;;;6.42;65.50;94757.63;4907469;29;20040;-87
2022/01/08 09:08:11;;;;;;;7.78;2.60;;;;;;;6.40;65.64;94731.22;4887570;29;20051;-81
2022/01/08 09:10:37;;;;;;;5.57;2.65;;;;;;;6.60;64.51;94734.47;4903463;29;20036;-80
2022/01/08 09:13:02;;;;;;;5.85;3.47;;;;;;;6.70;64.59;94731.44;4918680;29;20035;-81
2022/01/08 09:15:28;;;;;;;3.38;2.78;;;;;;;6.66;64.96;94721.72;4886209;29;20409;-82
2022/01/08 09:17:56;;;;;;;3.10;2.80;;;;;;;6.80;64.09;94730.97;4902860;29;20016;-82
2022/01/08 09:20:23;;;;;;;3.25;3.00;;;;;;;6.99;63.32;94727.44;4889530;29;20052;-85
2022/01/08 09:22:48;;;;;;;4.25;3.85;;;;;;;7.14;63.64;94720.16;4888391;29;20040;-83
2022/01/08 09:25:14;;;;;;;5.45;3.55;;;;;;;6.99;63.68;94718.88;4911524;29;20492;-81
2022/01/08 09:27:39;;;;;;;6.35;2.78;;;;;;;6.98;63.26;94705.16;4904321;29;20520;-83
2022/01/08 09:30:05;;;;;;;4.55;3.25;;;;;;;7.16;63.46;94701.84;4890870;29;20113;-82
2022/01/08 09:32:34;;;;;;;9.23;3.55;;;;;;;7.25;62.63;94699.78;4914030;29;20068;-84
2022/01/08 09:34:59;;;;;;;4.07;3.05;;;;;;;7.35;62.75;94692.31;4888999;29;20036;-84
2022/01/08 09:37:25;;;;;;;4.35;3.40;;;;;;;7.51;62.11;94702.91;4896321;29;20036;-82
2022/01/08 09:39:52;;;;;;;4.07;3.50;;;;;;;7.44;62.27;94693.59;4902227;29;20036;-82
2022/01/08 09:42:19;;;;;;;6.70;3.65;;;;;;;7.20;63.04;94692.66;4920388;29;20048;-80
2022/01/08 09:44:44;;;;;;;4.40;3.42;;;;;;;7.21;63.04;94694.25;4886624;29;20036;-82
2022/01/08 09:47:11;;;;;;;7.65;3.58;;;;;;;7.23;62.94;94682.69;4890315;29;20036;-86
2022/01/08 09:49:37;;;;;;;8.52;5.22;;;;;;;7.21;62.79;94679.50;4889821;29;20036;-84
2022/01/08 09:52:03;;;;;;;6.90;4.03;;;;;;;6.98;63.13;94684.50;4881010;29;20105;-84
2022/01/08 09:54:30;;;;;;;4.90;3.70;;;;;;;6.71;64.43;94683.13;4902051;29;20032;-82
2022/01/08 09:56:57;;;;;;;36.30;14.73;;;;;;;6.65;64.83;94678.78;4917568;29;20449;-80
2022/01/08 09:59:24;;;;;;;10.52;5.25;;;;;;;6.83;64.35;94671.91;4901788;29;20032;-81
2022/01/08 10:01:54;;;;;;;21.02;11.15;;;;;;;6.86;63.99;94671.47;4902859;29;20131;-84
2022/01/08 10:04:38;;;;;;;4.20;3.25;;;;;;;6.67;63.86;94671.63;4902738;29;20520;-84
2022/01/08 10:07:14;;;;;;;11.02;6.55;;;;;;;6.55;65.27;94669.72;4917554;29;20036;-81
2022/01/08 10:10:07;;;;;;;4.60;3.65;;;;;;;6.66;65.35;94650.16;4902194;29;20028;-82
2022/01/08 10:12:44;;;;;;;5.70;3.20;;;;;;;6.61;64.99;94661.13;4918796;29;20039;-81
2022/01/08 10:17:57;;;;;;;4.65;3.45;;;;;;;6.52;65.25;94653.88;4892403;29;20043;-79
2022/01/08 10:20:32;;;;;;;4.00;3.47;;;;;;;6.44;65.54;94660.06;4916035;29;20040;-81
2022/01/08 10:23:17;;;;;;;6.10;3.55;;;;;;;6.40;65.59;94643.41;4918037;29;20040;-80
2022/01/08 10:25:56;;;;;;;3.25;3.05;;;;;;;6.43;65.29;94661.06;4901709;29;20043;-81
2022/01/08 10:28:35;;;;;;;4.18;3.22;;;;;;;6.30;65.94;94650.81;4902456;29;20039;-82
2022/01/08 10:31:18;;;;;;;7.32;3.50;;;;;;;6.29;66.28;94644.09;4918915;29;20154;-81
2022/01/08 10:33:53;;;;;;;4.40;3.10;;;;;;;6.34;66.33;94636.50;4886963;29;20465;-81
2022/01/08 10:36:31;;;;;;;3.42;3.15;;;;;;;6.24;66.00;94633.59;4901738;29;20914;-81
2022/01/08 10:39:01;;;;;;;3.60;3.30;;;;;;;6.26;66.20;94629.81;4887300;29;20040;-81
2022/01/08 10:41:28;;;;;;;6.47;3.70;;;;;;;6.25;65.95;94627.44;4901389;29;20055;-83
2022/01/08 10:44:07;;;;;;;3.60;3.03;;;;;;;6.32;66.13;94631.53;4915936;29;20043;-80
2022/01/08 10:46:32;;;;;;;4.28;3.70;;;;;;;6.55;65.47;94617.28;4903451;29;20032;-79
2022/01/08 10:49:00;;;;;;;4.30;3.80;;;;;;;6.54;65.15;94621.66;4918198;29;20043;-80
2022/01/08 10:51:26;;;;;;;4.18;3.35;;;;;;;6.69;64.22;94603.25;4885544;29;20111;-82
2022/01/08 10:54:08;;;;;;;3.45;3.22;;;;;;;6.92;63.79;94602.63;4885074;29;20128;-81
2022/01/08 10:56:41;;;;;;;4.97;4.00;;;;;;;7.08;63.76;94615.00;4917428;29;20036;-80
2022/01/08 10:59:12;;;;;;;3.40;3.10;;;;;;;6.96;63.38;94598.59;4918262;29;20049;-80
2022/01/08 11:01:50;;;;;;;3.90;3.47;;;;;;;6.86;63.81;94619.78;4918025;29;20032;-78
2022/01/08 11:04:30;;;;;;;3.63;3.33;;;;;;;6.72;64.46;94607.19;4900188;29;20036;-78
2022/01/08 11:06:59;;;;;;;5.00;3.20;;;;;;;6.44;64.85;94615.38;4900486;29;20043;-80
2022/01/08 11:09:27;;;;;;;3.85;3.55;;;;;;;6.32;66.03;94603.13;4917322;29;20050;-82
2022/01/08 11:11:54;;;;;;;3.85;3.45;;;;;;;6.37;65.51;94636.09;4881625;29;20056;-84
2022/01/08 11:14:44;;;;;;;4.53;3.42;;;;;;;6.17;66.06;94596.69;4900174;29;20051;-85
2022/01/08 11:17:11;;;;;;;4.30;3.83;;;;;;;6.28;66.08;94614.88;4918082;29;20070;-87
2022/01/08 11:19:36;;;;;;;4.07;3.70;;;;;;;6.25;66.43;94601.59;4870609;29;20481;-84
2022/01/08 11:22:02;;;;;;;4.20;3.80;;;;;;;6.46;65.90;94593.50;4901256;29;20036;-82
2022/01/08 11:24:27;;;;;;;4.43;3.47;;;;;;;6.34;65.98;94600.34;4901731;29;20051;-84
2022/01/08 11:26:53;;;;;;;4.60;3.67;;;;;;;6.42;65.35;94612.22;4918791;29;20028;-83
2022/01/08 11:29:21;;;;;;;3.40;3.20;;;;;;;6.55;64.82;94587.06;4885912;29;20051;-81
2022/01/08 11:31:55;;;;;;;3.90;3.42;;;;;;;6.60;65.26;94594.19;4916241;29;20032;-82
2022/01/08 11:34:23;;;;;;;3.88;3.58;;;;;;;6.60;64.94;94589.81;4900297;29;20032;-81
2022/01/08 11:36:50;;;;;;;4.10;3.80;;;;;;;6.74;64.28;94592.28;4900825;29;20063;-82
2022/01/08 11:39:15;;;;;;;5.13;4.03;;;;;;;6.72;65.01;94581.38;4900152;29;20040;-82
2022/01/08 11:41:41;;;;;;;6.55;4.35;;;;;;;6.76;65.06;94583.28;4884678;29;20393;-80
2022/01/08 11:44:07;;;;;;;4.53;4.10;;;;;;;7.04;64.12;94569.91;4882314;29;20091;-81
2022/01/08 11:46:34;;;;;;;4.50;4.10;;;;;;;7.03;63.46;94573.50;4900717;29;20047;-81
2022/01/08 11:49:00;;;;;;;6.22;4.22;;;;;;;6.88;64.25;94557.53;4892858;29;20044;-82
2022/01/08 11:51:27;;;;;;;6.57;3.78;;;;;;;7.09;63.58;94564.88;4883779;29;20028;-81
2022/01/08 11:53:54;;;;;;;5.40;4.20;;;;;;;6.95;64.14;94566.00;4919344;29;20036;-83
2022/01/08 11:56:26;;;;;;;12.85;4.55;;;;;;;6.93;64.46;94557.69;4886015;29;20059;-83
2022/01/08 11:59:02;;;;;;;4.65;4.13;;;;;;;7.16;63.33;94557.84;4889348;29;20064;-84
2022/01/08 12:01:28;;;;;;;4.13;3.70;;;;;;;7.30;62.92;94555.88;4897877;29;20040;-83
2022/01/08 12:04:25;;;;;;;5.90;4.70;;;;;;;7.38;62.90;94549.63;5064519;23;20958;31
2022/01/08 12:06:51;;;;;;;4.30;4.00;;;;;;;7.23;62.58;94553.38;4841022;29;20136;-81
2022/01/08 12:09:19;;;;;;;4.72;3.95;;;;;;;6.99;63.17;94556.81;4860510;29;20092;-81
2022/01/08 12:11:45;;;;;;;5.93;4.28;;;;;;;6.55;65.09;94550.91;4844405;29;20113;-81
2022/01/08 12:14:17;;;;;;;6.53;4.18;;;;;;;6.64;65.22;94561.75;4863051;29;20058;-82
2022/01/08 12:16:47;;;;;;;5.03;4.07;;;;;;;6.27;65.71;94545.38;4832558;29;20445;-83
2022/01/08 12:19:31;;;;;;;6.35;4.25;;;;;;;6.36;65.99;94536.38;4848474;29;20021;-82
2022/01/08 12:21:57;;;;;;;4.93;3.70;;;;;;;6.22;65.99;94537.50;4864795;29;20037;-81
2022/01/08 12:24:25;;;;;;;5.72;4.45;;;;;;;6.32;65.60;94536.00;4828547;29;20422;-81
2022/01/08 12:26:51;;;;;;;4.78;4.40;;;;;;;6.38;66.00;94536.97;4859800;29;20034;-81